sensor_id;sensor_type;location;lat;lon;timestamp;P1;durP1;ratioP1;P2;durP2;ratioP2
74233;SDS011;62591;55.764;37.718;2023-11-19T00:01:51;12.50;;;4.97;;
74233;SDS011;62591;55.764;37.718;2023-11-19T00:04:20;10.35;;;3.70;;
74233;SDS011;62591;55.764;37.718;2023-11-19T00:06:50;10.60;;;4.70;;
74233;SDS011;62591;55.764;37.718;2023-11-19T00:09:19;10.70;;;4.97;;
74233;SDS011;62591;55.764;37.718;2023-11-19T00:11:48;12.63;;;5.15;;
74233;SDS011;62591;55.764;37.718;2023-11-19T00:14:19;10.65;;;5.10;;
74233;SDS011;62591;55.764;37.718;2023-11-19T00:16:48;11.18;;;4.80;;
74233;SDS011;62591;55.764;37.718;2023-11-19T00:19:20;11.57;;;5.32;;
74233;SDS011;62591;55.764;37.718;2023-11-19T00:21:53;15.18;;;5.35;;
74233;SDS011;62591;55.764;37.718;2023-11-19T00:24:22;11.25;;;5.18;;
74233;SDS011;62591;55.764;37.718;2023-11-19T00:26:51;10.25;;;4.88;;
74233;SDS011;62591;55.764;37.718;2023-11-19T00:29:20;13.30;;;5.22;;
74233;SDS011;62591;55.764;37.718;2023-11-19T00:31:48;13.77;;;4.93;;
74233;SDS011;62591;55.764;37.718;2023-11-19T00:34:18;12.68;;;5.30;;
74233;SDS011;62591;55.764;37.718;2023-11-19T00:36:51;12.48;;;5.47;;
74233;SDS011;62591;55.764;37.718;2023-11-19T00:39:21;11.98;;;5.20;;
74233;SDS011;62591;55.764;37.718;2023-11-19T00:41:50;17.05;;;6.10;;
74233;SDS011;62591;55.764;37.718;2023-11-19T00:44:18;18.15;;;6.55;;
74233;SDS011;62591;55.764;37.718;2023-11-19T00:46:48;14.15;;;6.22;;
74233;SDS011;62591;55.764;37.718;2023-11-19T00:49:17;13.93;;;6.47;;
74233;SDS011;62591;55.764;37.718;2023-11-19T00:51:46;15.85;;;6.50;;
74233;SDS011;62591;55.764;37.718;2023-11-19T00:54:16;15.52;;;6.13;;
74233;SDS011;62591;55.764;37.718;2023-11-19T00:56:46;22.27;;;6.82;;
74233;SDS011;62591;55.764;37.718;2023-11-19T00:59:15;12.95;;;6.00;;
74233;SDS011;62591;55.764;37.718;2023-11-19T01:01:44;13.85;;;6.80;;
74233;SDS011;62591;55.764;37.718;2023-11-19T01:04:14;16.05;;;6.55;;
74233;SDS011;62591;55.764;37.718;2023-11-19T01:06:43;20.23;;;6.47;;
74233;SDS011;62591;55.764;37.718;2023-11-19T01:09:15;13.15;;;6.18;;
74233;SDS011;62591;55.764;37.718;2023-11-19T01:11:43;15.82;;;6.07;;
74233;SDS011;62591;55.764;37.718;2023-11-19T01:14:17;16.10;;;6.57;;
74233;SDS011;62591;55.764;37.718;2023-11-19T01:16:49;18.00;;;7.65;;
74233;SDS011;62591;55.764;37.718;2023-11-19T01:19:19;26.75;;;11.43;;
74233;SDS011;62591;55.764;37.718;2023-11-19T01:21:48;35.30;;;13.70;;
74233;SDS011;62591;55.764;37.718;2023-11-19T01:24:17;43.17;;;16.08;;
74233;SDS011;62591;55.764;37.718;2023-11-19T01:26:46;29.08;;;9.70;;
74233;SDS011;62591;55.764;37.718;2023-11-19T01:29:20;29.42;;;11.18;;
74233;SDS011;62591;55.764;37.718;2023-11-19T01:31:49;31.38;;;11.35;;
74233;SDS011;62591;55.764;37.718;2023-11-19T01:34:18;31.17;;;9.73;;
74233;SDS011;62591;55.764;37.718;2023-11-19T01:36:48;32.45;;;12.95;;
74233;SDS011;62591;55.764;37.718;2023-11-19T01:39:17;27.08;;;10.93;;
74233;SDS011;62591;55.764;37.718;2023-11-19T01:41:47;28.73;;;10.10;;
74233;SDS011;62591;55.764;37.718;2023-11-19T01:44:16;18.58;;;7.93;;
74233;SDS011;62591;55.764;37.718;2023-11-19T01:46:47;24.95;;;8.63;;
74233;SDS011;62591;55.764;37.718;2023-11-19T01:49:17;22.13;;;8.73;;
74233;SDS011;62591;55.764;37.718;2023-11-19T01:51:47;21.02;;;7.93;;
74233;SDS011;62591;55.764;37.718;2023-11-19T01:54:17;20.50;;;8.73;;
74233;SDS011;62591;55.764;37.718;2023-11-19T01:56:45;25.38;;;9.23;;
74233;SDS011;62591;55.764;37.718;2023-11-19T01:59:15;17.90;;;8.32;;
74233;SDS011;62591;55.764;37.718;2023-11-19T02:01:44;28.98;;;9.15;;
74233;SDS011;62591;55.764;37.718;2023-11-19T02:06:54;22.63;;;8.57;;
74233;SDS011;62591;55.764;37.718;2023-11-19T02:09:26;23.73;;;8.45;;
74233;SDS011;62591;55.764;37.718;2023-11-19T02:11:55;19.05;;;7.53;;
74233;SDS011;62591;55.764;37.718;2023-11-19T02:14:25;20.35;;;8.25;;
74233;SDS011;62591;55.764;37.718;2023-11-19T02:16:57;16.25;;;7.30;;
74233;SDS011;62591;55.764;37.718;2023-11-19T02:19:25;17.17;;;7.50;;
74233;SDS011;62591;55.764;37.718;2023-11-19T02:22:14;21.23;;;9.50;;
74233;SDS011;62591;55.764;37.718;2023-11-19T02:24:43;25.75;;;10.45;;
74233;SDS011;62591;55.764;37.718;2023-11-19T02:27:14;32.40;;;11.32;;
74233;SDS011;62591;55.764;37.718;2023-11-19T02:29:49;34.45;;;13.13;;
74233;SDS011;62591;55.764;37.718;2023-11-19T02:32:18;36.17;;;14.40;;
74233;SDS011;62591;55.764;37.718;2023-11-19T02:34:47;38.92;;;15.50;;
74233;SDS011;62591;55.764;37.718;2023-11-19T02:37:16;41.70;;;16.90;;
74233;SDS011;62591;55.764;37.718;2023-11-19T02:39:46;40.80;;;17.95;;
74233;SDS011;62591;55.764;37.718;2023-11-19T02:42:14;32.30;;;14.43;;
74233;SDS011;62591;55.764;37.718;2023-11-19T02:44:43;29.63;;;10.40;;
74233;SDS011;62591;55.764;37.718;2023-11-19T02:47:14;28.13;;;9.65;;
74233;SDS011;62591;55.764;37.718;2023-11-19T02:49:42;20.45;;;8.80;;
74233;SDS011;62591;55.764;37.718;2023-11-19T02:52:11;23.02;;;8.38;;
74233;SDS011;62591;55.764;37.718;2023-11-19T02:54:42;23.48;;;9.68;;
74233;SDS011;62591;55.764;37.718;2023-11-19T02:57:12;24.00;;;9.00;;
74233;SDS011;62591;55.764;37.718;2023-11-19T02:59:43;21.75;;;7.70;;
74233;SDS011;62591;55.764;37.718;2023-11-19T03:02:13;22.85;;;7.22;;
74233;SDS011;62591;55.764;37.718;2023-11-19T03:04:43;20.25;;;7.93;;
74233;SDS011;62591;55.764;37.718;2023-11-19T03:07:13;17.38;;;7.45;;
74233;SDS011;62591;55.764;37.718;2023-11-19T03:09:42;17.20;;;7.97;;
74233;SDS011;62591;55.764;37.718;2023-11-19T03:12:11;17.27;;;7.95;;
74233;SDS011;62591;55.764;37.718;2023-11-19T03:14:39;23.50;;;7.78;;
74233;SDS011;62591;55.764;37.718;2023-11-19T03:17:09;23.15;;;7.72;;
74233;SDS011;62591;55.764;37.718;2023-11-19T03:19:40;23.95;;;10.40;;
74233;SDS011;62591;55.764;37.718;2023-11-19T03:22:09;27.27;;;12.20;;
74233;SDS011;62591;55.764;37.718;2023-11-19T03:24:39;25.05;;;11.35;;
74233;SDS011;62591;55.764;37.718;2023-11-19T03:27:08;32.40;;;11.43;;
74233;SDS011;62591;55.764;37.718;2023-11-19T03:29:37;28.33;;;10.90;;
74233;SDS011;62591;55.764;37.718;2023-11-19T03:32:08;26.10;;;10.05;;
74233;SDS011;62591;55.764;37.718;2023-11-19T03:34:36;25.05;;;9.82;;
74233;SDS011;62591;55.764;37.718;2023-11-19T03:37:06;20.10;;;8.90;;
74233;SDS011;62591;55.764;37.718;2023-11-19T03:39:35;20.55;;;9.32;;
74233;SDS011;62591;55.764;37.718;2023-11-19T03:42:04;24.13;;;9.90;;
74233;SDS011;62591;55.764;37.718;2023-11-19T03:44:33;25.30;;;10.07;;
74233;SDS011;62591;55.764;37.718;2023-11-19T03:47:01;21.40;;;9.95;;
74233;SDS011;62591;55.764;37.718;2023-11-19T03:49:30;18.55;;;9.93;;
74233;SDS011;62591;55.764;37.718;2023-11-19T03:51:59;17.52;;;9.90;;
74233;SDS011;62591;55.764;37.718;2023-11-19T03:54:30;23.42;;;9.63;;
74233;SDS011;62591;55.764;37.718;2023-11-19T03:56:59;23.00;;;10.32;;
74233;SDS011;62591;55.764;37.718;2023-11-19T03:59:30;24.48;;;10.65;;
74233;SDS011;62591;55.764;37.718;2023-11-19T04:02:00;27.48;;;10.57;;
74233;SDS011;62591;55.764;37.718;2023-11-19T04:04:29;25.58;;;10.57;;
74233;SDS011;62591;55.764;37.718;2023-11-19T04:07:00;22.15;;;10.02;;
74233;SDS011;62591;55.764;37.718;2023-11-19T04:09:31;25.48;;;11.85;;
74233;SDS011;62591;55.764;37.718;2023-11-19T04:12:00;28.23;;;12.23;;
74233;SDS011;62591;55.764;37.718;2023-11-19T04:14:29;23.50;;;11.38;;
74233;SDS011;62591;55.764;37.718;2023-11-19T04:16:58;27.55;;;11.80;;
74233;SDS011;62591;55.764;37.718;2023-11-19T04:19:27;28.70;;;10.82;;
74233;SDS011;62591;55.764;37.718;2023-11-19T04:21:56;32.33;;;13.23;;
74233;SDS011;62591;55.764;37.718;2023-11-19T04:24:25;25.58;;;12.77;;
74233;SDS011;62591;55.764;37.718;2023-11-19T04:26:55;27.35;;;11.82;;
74233;SDS011;62591;55.764;37.718;2023-11-19T04:29:23;27.15;;;12.45;;
74233;SDS011;62591;55.764;37.718;2023-11-19T04:31:53;33.38;;;13.35;;
74233;SDS011;62591;55.764;37.718;2023-11-19T04:34:21;29.95;;;13.38;;
74233;SDS011;62591;55.764;37.718;2023-11-19T04:36:50;39.03;;;14.82;;
74233;SDS011;62591;55.764;37.718;2023-11-19T04:39:19;23.85;;;11.60;;
74233;SDS011;62591;55.764;37.718;2023-11-19T04:41:48;37.85;;;14.07;;
74233;SDS011;62591;55.764;37.718;2023-11-19T04:44:20;28.48;;;12.95;;
74233;SDS011;62591;55.764;37.718;2023-11-19T04:46:50;25.75;;;12.43;;
74233;SDS011;62591;55.764;37.718;2023-11-19T04:49:19;30.83;;;12.60;;
74233;SDS011;62591;55.764;37.718;2023-11-19T04:51:47;27.45;;;12.10;;
74233;SDS011;62591;55.764;37.718;2023-11-19T04:54:18;36.45;;;11.82;;
74233;SDS011;62591;55.764;37.718;2023-11-19T04:56:47;26.98;;;11.23;;
74233;SDS011;62591;55.764;37.718;2023-11-19T04:59:16;25.08;;;10.65;;
74233;SDS011;62591;55.764;37.718;2023-11-19T05:01:47;28.48;;;11.07;;
74233;SDS011;62591;55.764;37.718;2023-11-19T05:04:17;26.38;;;10.38;;
74233;SDS011;62591;55.764;37.718;2023-11-19T05:06:47;25.45;;;10.60;;
74233;SDS011;62591;55.764;37.718;2023-11-19T05:09:15;29.90;;;11.80;;
74233;SDS011;62591;55.764;37.718;2023-11-19T05:11:45;29.08;;;12.30;;
74233;SDS011;62591;55.764;37.718;2023-11-19T05:14:16;25.55;;;11.80;;
74233;SDS011;62591;55.764;37.718;2023-11-19T05:16:45;26.15;;;12.00;;
74233;SDS011;62591;55.764;37.718;2023-11-19T05:19:15;30.67;;;12.40;;
74233;SDS011;62591;55.764;37.718;2023-11-19T05:21:47;20.60;;;10.05;;
74233;SDS011;62591;55.764;37.718;2023-11-19T05:24:19;25.38;;;10.15;;
74233;SDS011;62591;55.764;37.718;2023-11-19T05:26:47;27.77;;;10.07;;
74233;SDS011;62591;55.764;37.718;2023-11-19T05:29:17;23.35;;;10.52;;
74233;SDS011;62591;55.764;37.718;2023-11-19T05:31:46;21.52;;;10.18;;
74233;SDS011;62591;55.764;37.718;2023-11-19T05:34:16;20.30;;;10.20;;
74233;SDS011;62591;55.764;37.718;2023-11-19T05:36:45;18.38;;;9.23;;
74233;SDS011;62591;55.764;37.718;2023-11-19T05:39:14;17.40;;;8.82;;
74233;SDS011;62591;55.764;37.718;2023-11-19T05:41:46;24.27;;;10.52;;
74233;SDS011;62591;55.764;37.718;2023-11-19T05:44:15;22.25;;;9.73;;
74233;SDS011;62591;55.764;37.718;2023-11-19T05:46:43;19.33;;;10.27;;
74233;SDS011;62591;55.764;37.718;2023-11-19T05:49:12;32.58;;;13.10;;
74233;SDS011;62591;55.764;37.718;2023-11-19T05:51:42;27.65;;;10.63;;
74233;SDS011;62591;55.764;37.718;2023-11-19T05:54:11;29.02;;;11.75;;
74233;SDS011;62591;55.764;37.718;2023-11-19T05:56:40;31.40;;;12.38;;
74233;SDS011;62591;55.764;37.718;2023-11-19T05:59:09;31.20;;;14.13;;
74233;SDS011;62591;55.764;37.718;2023-11-19T06:01:42;27.95;;;13.65;;
74233;SDS011;62591;55.764;37.718;2023-11-19T06:04:11;30.23;;;13.52;;
74233;SDS011;62591;55.764;37.718;2023-11-19T06:06:40;34.88;;;13.60;;
74233;SDS011;62591;55.764;37.718;2023-11-19T06:09:10;29.13;;;14.18;;
74233;SDS011;62591;55.764;37.718;2023-11-19T06:11:41;33.50;;;14.25;;
74233;SDS011;62591;55.764;37.718;2023-11-19T06:14:11;28.20;;;13.82;;
74233;SDS011;62591;55.764;37.718;2023-11-19T06:16:39;33.65;;;16.20;;
74233;SDS011;62591;55.764;37.718;2023-11-19T06:19:08;29.42;;;14.38;;
74233;SDS011;62591;55.764;37.718;2023-11-19T06:21:38;38.63;;;16.20;;
74233;SDS011;62591;55.764;37.718;2023-11-19T06:24:07;36.80;;;16.63;;
74233;SDS011;62591;55.764;37.718;2023-11-19T06:26:38;35.17;;;16.48;;
74233;SDS011;62591;55.764;37.718;2023-11-19T06:29:07;32.03;;;15.45;;
74233;SDS011;62591;55.764;37.718;2023-11-19T06:31:35;38.67;;;15.95;;
74233;SDS011;62591;55.764;37.718;2023-11-19T06:34:04;30.63;;;14.18;;
74233;SDS011;62591;55.764;37.718;2023-11-19T06:36:33;39.85;;;17.13;;
74233;SDS011;62591;55.764;37.718;2023-11-19T06:39:02;37.60;;;16.60;;
74233;SDS011;62591;55.764;37.718;2023-11-19T06:41:31;40.60;;;18.02;;
74233;SDS011;62591;55.764;37.718;2023-11-19T06:44:01;37.58;;;16.92;;
74233;SDS011;62591;55.764;37.718;2023-11-19T06:46:30;38.35;;;17.33;;
74233;SDS011;62591;55.764;37.718;2023-11-19T06:48:59;39.13;;;18.08;;
74233;SDS011;62591;55.764;37.718;2023-11-19T06:51:28;41.53;;;19.60;;
74233;SDS011;62591;55.764;37.718;2023-11-19T06:53:58;43.33;;;19.88;;
74233;SDS011;62591;55.764;37.718;2023-11-19T06:56:27;47.72;;;20.80;;
74233;SDS011;62591;55.764;37.718;2023-11-19T06:58:56;51.45;;;21.98;;
74233;SDS011;62591;55.764;37.718;2023-11-19T07:01:26;60.58;;;26.35;;
74233;SDS011;62591;55.764;37.718;2023-11-19T07:03:55;50.42;;;21.70;;
74233;SDS011;62591;55.764;37.718;2023-11-19T07:06:25;57.03;;;21.02;;
74233;SDS011;62591;55.764;37.718;2023-11-19T07:08:56;45.33;;;18.05;;
74233;SDS011;62591;55.764;37.718;2023-11-19T07:11:25;23.35;;;11.98;;
74233;SDS011;62591;55.764;37.718;2023-11-19T07:13:54;23.10;;;11.05;;
74233;SDS011;62591;55.764;37.718;2023-11-19T07:16:23;18.77;;;9.00;;
74233;SDS011;62591;55.764;37.718;2023-11-19T07:18:53;19.90;;;8.70;;
74233;SDS011;62591;55.764;37.718;2023-11-19T07:21:22;18.42;;;9.65;;
74233;SDS011;62591;55.764;37.718;2023-11-19T07:23:52;21.80;;;10.00;;
74233;SDS011;62591;55.764;37.718;2023-11-19T07:26:20;24.17;;;10.73;;
74233;SDS011;62591;55.764;37.718;2023-11-19T07:28:49;20.13;;;8.98;;
74233;SDS011;62591;55.764;37.718;2023-11-19T07:31:19;19.95;;;9.60;;
74233;SDS011;62591;55.764;37.718;2023-11-19T07:33:47;22.70;;;10.05;;
74233;SDS011;62591;55.764;37.718;2023-11-19T07:36:17;31.13;;;11.55;;
74233;SDS011;62591;55.764;37.718;2023-11-19T07:38:46;22.73;;;11.23;;
74233;SDS011;62591;55.764;37.718;2023-11-19T07:41:14;29.80;;;11.65;;
74233;SDS011;62591;55.764;37.718;2023-11-19T07:43:44;24.65;;;10.88;;
74233;SDS011;62591;55.764;37.718;2023-11-19T07:46:13;22.50;;;11.70;;
74233;SDS011;62591;55.764;37.718;2023-11-19T07:48:42;24.77;;;12.85;;
74233;SDS011;62591;55.764;37.718;2023-11-19T07:51:11;24.90;;;11.27;;
74233;SDS011;62591;55.764;37.718;2023-11-19T07:53:41;26.83;;;12.23;;
74233;SDS011;62591;55.764;37.718;2023-11-19T07:56:10;27.75;;;11.98;;
74233;SDS011;62591;55.764;37.718;2023-11-19T07:58:39;27.45;;;13.25;;
74233;SDS011;62591;55.764;37.718;2023-11-19T08:01:10;18.67;;;9.80;;
74233;SDS011;62591;55.764;37.718;2023-11-19T08:03:40;25.52;;;10.70;;
74233;SDS011;62591;55.764;37.718;2023-11-19T08:06:25;29.75;;;15.35;;
74233;SDS011;62591;55.764;37.718;2023-11-19T08:08:55;38.38;;;21.95;;
74233;SDS011;62591;55.764;37.718;2023-11-19T08:11:23;40.25;;;21.15;;
74233;SDS011;62591;55.764;37.718;2023-11-19T08:13:52;39.65;;;23.08;;
74233;SDS011;62591;55.764;37.718;2023-11-19T08:16:22;39.97;;;21.27;;
74233;SDS011;62591;55.764;37.718;2023-11-19T08:18:50;41.28;;;18.75;;
74233;SDS011;62591;55.764;37.718;2023-11-19T08:21:19;36.03;;;16.25;;
74233;SDS011;62591;55.764;37.718;2023-11-19T08:23:49;29.38;;;14.13;;
74233;SDS011;62591;55.764;37.718;2023-11-19T08:26:20;30.42;;;14.68;;
74233;SDS011;62591;55.764;37.718;2023-11-19T08:28:48;28.60;;;12.70;;
74233;SDS011;62591;55.764;37.718;2023-11-19T08:31:18;28.58;;;12.63;;
74233;SDS011;62591;55.764;37.718;2023-11-19T08:33:48;23.20;;;12.15;;
74233;SDS011;62591;55.764;37.718;2023-11-19T08:36:17;20.85;;;10.55;;
74233;SDS011;62591;55.764;37.718;2023-11-19T08:38:46;23.30;;;10.50;;
74233;SDS011;62591;55.764;37.718;2023-11-19T08:41:18;23.00;;;10.57;;
74233;SDS011;62591;55.764;37.718;2023-11-19T08:43:49;19.83;;;10.23;;
74233;SDS011;62591;55.764;37.718;2023-11-19T08:46:18;19.80;;;9.55;;
74233;SDS011;62591;55.764;37.718;2023-11-19T08:48:47;26.48;;;12.95;;
74233;SDS011;62591;55.764;37.718;2023-11-19T08:51:17;24.15;;;9.10;;
74233;SDS011;62591;55.764;37.718;2023-11-19T08:53:46;22.30;;;10.00;;
74233;SDS011;62591;55.764;37.718;2023-11-19T08:56:14;16.80;;;8.02;;
74233;SDS011;62591;55.764;37.718;2023-11-19T08:58:45;17.13;;;7.82;;
74233;SDS011;62591;55.764;37.718;2023-11-19T09:04:11;16.02;;;7.63;;
74233;SDS011;62591;55.764;37.718;2023-11-19T09:06:43;18.58;;;8.30;;
74233;SDS011;62591;55.764;37.718;2023-11-19T09:09:13;16.55;;;7.70;;
74233;SDS011;62591;55.764;37.718;2023-11-19T09:11:41;14.88;;;7.30;;
74233;SDS011;62591;55.764;37.718;2023-11-19T09:14:11;18.33;;;7.95;;
74233;SDS011;62591;55.764;37.718;2023-11-19T09:16:41;16.58;;;8.38;;
74233;SDS011;62591;55.764;37.718;2023-11-19T09:19:10;20.25;;;8.20;;
74233;SDS011;62591;55.764;37.718;2023-11-19T09:21:39;15.43;;;7.70;;
74233;SDS011;62591;55.764;37.718;2023-11-19T09:24:08;14.48;;;7.65;;
74233;SDS011;62591;55.764;37.718;2023-11-19T09:26:41;17.65;;;8.65;;
74233;SDS011;62591;55.764;37.718;2023-11-19T09:29:09;18.30;;;8.20;;
74233;SDS011;62591;55.764;37.718;2023-11-19T09:31:41;21.30;;;8.75;;
74233;SDS011;62591;55.764;37.718;2023-11-19T09:34:10;16.50;;;8.43;;
74233;SDS011;62591;55.764;37.718;2023-11-19T09:36:38;19.33;;;8.18;;
74233;SDS011;62591;55.764;37.718;2023-11-19T09:39:11;16.52;;;8.90;;
74233;SDS011;62591;55.764;37.718;2023-11-19T09:41:42;15.98;;;7.82;;
74233;SDS011;62591;55.764;37.718;2023-11-19T09:44:14;20.23;;;8.43;;
74233;SDS011;62591;55.764;37.718;2023-11-19T09:46:45;20.05;;;9.38;;
74233;SDS011;62591;55.764;37.718;2023-11-19T09:49:16;18.45;;;9.32;;
74233;SDS011;62591;55.764;37.718;2023-11-19T09:52:02;19.20;;;8.50;;
74233;SDS011;62591;55.764;37.718;2023-11-19T09:54:32;16.83;;;8.30;;
74233;SDS011;62591;55.764;37.718;2023-11-19T09:57:01;18.13;;;9.60;;
74233;SDS011;62591;55.764;37.718;2023-11-19T09:59:32;15.55;;;8.02;;
74233;SDS011;62591;55.764;37.718;2023-11-19T10:02:01;14.82;;;7.72;;
74233;SDS011;62591;55.764;37.718;2023-11-19T10:04:33;15.27;;;7.88;;
74233;SDS011;62591;55.764;37.718;2023-11-19T10:07:06;15.80;;;8.18;;
74233;SDS011;62591;55.764;37.718;2023-11-19T10:09:35;20.67;;;8.32;;
74233;SDS011;62591;55.764;37.718;2023-11-19T10:12:04;15.50;;;7.32;;
74233;SDS011;62591;55.764;37.718;2023-11-19T10:14:34;18.52;;;7.70;;
74233;SDS011;62591;55.764;37.718;2023-11-19T10:17:07;12.15;;;7.40;;
74233;SDS011;62591;55.764;37.718;2023-11-19T10:19:36;17.58;;;7.68;;
74233;SDS011;62591;55.764;37.718;2023-11-19T10:22:06;16.08;;;8.18;;
74233;SDS011;62591;55.764;37.718;2023-11-19T10:24:34;18.05;;;8.00;;
74233;SDS011;62591;55.764;37.718;2023-11-19T10:27:09;21.98;;;8.70;;
74233;SDS011;62591;55.764;37.718;2023-11-19T10:29:39;13.82;;;7.22;;
74233;SDS011;62591;55.764;37.718;2023-11-19T10:32:07;13.57;;;7.15;;
74233;SDS011;62591;55.764;37.718;2023-11-19T10:35:01;19.50;;;7.40;;
74233;SDS011;62591;55.764;37.718;2023-11-19T10:37:33;12.88;;;7.53;;
74233;SDS011;62591;55.764;37.718;2023-11-19T10:40:05;17.60;;;7.38;;
74233;SDS011;62591;55.764;37.718;2023-11-19T10:42:37;14.75;;;7.20;;
74233;SDS011;62591;55.764;37.718;2023-11-19T10:45:16;14.55;;;8.23;;
74233;SDS011;62591;55.764;37.718;2023-11-19T10:47:51;17.77;;;7.32;;
74233;SDS011;62591;55.764;37.718;2023-11-19T10:50:20;15.38;;;8.18;;
74233;SDS011;62591;55.764;37.718;2023-11-19T10:52:51;18.55;;;8.80;;
74233;SDS011;62591;55.764;37.718;2023-11-19T10:55:25;17.65;;;8.77;;
74233;SDS011;62591;55.764;37.718;2023-11-19T10:57:58;19.73;;;8.32;;
74233;SDS011;62591;55.764;37.718;2023-11-19T11:00:32;15.18;;;8.60;;
74233;SDS011;62591;55.764;37.718;2023-11-19T11:03:08;25.73;;;8.68;;
74233;SDS011;62591;55.764;37.718;2023-11-19T11:05:40;23.95;;;9.02;;
74233;SDS011;62591;55.764;37.718;2023-11-19T11:08:12;19.77;;;8.15;;
74233;SDS011;62591;55.764;37.718;2023-11-19T11:10:42;16.25;;;8.15;;
74233;SDS011;62591;55.764;37.718;2023-11-19T11:13:15;17.50;;;8.48;;
74233;SDS011;62591;55.764;37.718;2023-11-19T11:15:46;18.83;;;8.57;;
74233;SDS011;62591;55.764;37.718;2023-11-19T11:18:16;16.60;;;8.80;;
74233;SDS011;62591;55.764;37.718;2023-11-19T11:20:46;22.38;;;8.10;;
74233;SDS011;62591;55.764;37.718;2023-11-19T11:23:21;18.05;;;8.50;;
74233;SDS011;62591;55.764;37.718;2023-11-19T11:26:20;18.15;;;8.90;;
74233;SDS011;62591;55.764;37.718;2023-11-19T11:29:02;18.95;;;9.25;;
74233;SDS011;62591;55.764;37.718;2023-11-19T11:31:36;23.15;;;8.73;;
74233;SDS011;62591;55.764;37.718;2023-11-19T11:34:29;14.93;;;7.82;;
74233;SDS011;62591;55.764;37.718;2023-11-19T11:37:25;18.10;;;7.90;;
74233;SDS011;62591;55.764;37.718;2023-11-19T11:39:58;16.45;;;7.80;;
74233;SDS011;62591;55.764;37.718;2023-11-19T11:42:35;15.63;;;8.18;;
74233;SDS011;62591;55.764;37.718;2023-11-19T11:45:05;15.55;;;7.60;;
74233;SDS011;62591;55.764;37.718;2023-11-19T11:53:32;20.27;;;8.45;;
74233;SDS011;62591;55.764;37.718;2023-11-19T11:56:04;18.05;;;8.68;;
74233;SDS011;62591;55.764;37.718;2023-11-19T11:58:35;19.10;;;8.93;;
74233;SDS011;62591;55.764;37.718;2023-11-19T12:01:14;18.73;;;8.48;;
74233;SDS011;62591;55.764;37.718;2023-11-19T12:03:48;18.05;;;8.10;;
74233;SDS011;62591;55.764;37.718;2023-11-19T12:06:20;17.80;;;8.63;;
74233;SDS011;62591;55.764;37.718;2023-11-19T12:08:49;19.55;;;7.80;;
74233;SDS011;62591;55.764;37.718;2023-11-19T12:11:19;14.13;;;7.50;;
74233;SDS011;62591;55.764;37.718;2023-11-19T12:13:55;14.40;;;8.13;;
74233;SDS011;62591;55.764;37.718;2023-11-19T12:16:26;15.90;;;7.82;;
74233;SDS011;62591;55.764;37.718;2023-11-19T12:18:57;17.33;;;7.97;;
74233;SDS011;62591;55.764;37.718;2023-11-19T12:21:32;15.05;;;7.70;;
74233;SDS011;62591;55.764;37.718;2023-11-19T12:24:04;19.25;;;7.15;;
74233;SDS011;62591;55.764;37.718;2023-11-19T12:26:36;16.42;;;7.70;;
74233;SDS011;62591;55.764;37.718;2023-11-19T12:29:06;13.23;;;7.22;;
74233;SDS011;62591;55.764;37.718;2023-11-19T12:31:36;14.32;;;7.10;;
74233;SDS011;62591;55.764;37.718;2023-11-19T12:34:08;13.73;;;6.95;;
74233;SDS011;62591;55.764;37.718;2023-11-19T12:39:12;13.90;;;7.22;;
74233;SDS011;62591;55.764;37.718;2023-11-19T12:41:50;14.05;;;6.70;;
74233;SDS011;62591;55.764;37.718;2023-11-19T12:44:20;12.55;;;7.28;;
74233;SDS011;62591;55.764;37.718;2023-11-19T12:46:59;20.90;;;7.03;;
74233;SDS011;62591;55.764;37.718;2023-11-19T12:49:32;12.13;;;6.28;;
74233;SDS011;62591;55.764;37.718;2023-11-19T12:52:01;10.95;;;6.20;;
74233;SDS011;62591;55.764;37.718;2023-11-19T12:54:32;13.40;;;6.22;;
74233;SDS011;62591;55.764;37.718;2023-11-19T12:57:02;12.65;;;6.38;;
74233;SDS011;62591;55.764;37.718;2023-11-19T12:59:32;11.82;;;6.30;;
74233;SDS011;62591;55.764;37.718;2023-11-19T13:02:00;13.98;;;7.47;;
74233;SDS011;62591;55.764;37.718;2023-11-19T13:04:34;16.60;;;7.20;;
74233;SDS011;62591;55.764;37.718;2023-11-19T13:07:03;13.70;;;6.88;;
74233;SDS011;62591;55.764;37.718;2023-11-19T13:09:32;11.07;;;6.53;;
74233;SDS011;62591;55.764;37.718;2023-11-19T13:12:11;15.23;;;7.18;;
74233;SDS011;62591;55.764;37.718;2023-11-19T13:14:41;13.80;;;6.80;;
74233;SDS011;62591;55.764;37.718;2023-11-19T13:17:13;13.93;;;7.05;;
74233;SDS011;62591;55.764;37.718;2023-11-19T13:19:43;16.00;;;6.78;;
74233;SDS011;62591;55.764;37.718;2023-11-19T13:22:15;20.80;;;8.40;;
74233;SDS011;62591;55.764;37.718;2023-11-19T13:24:44;19.42;;;8.38;;
74233;SDS011;62591;55.764;37.718;2023-11-19T13:27:13;22.60;;;8.25;;
74233;SDS011;62591;55.764;37.718;2023-11-19T13:29:41;14.43;;;7.72;;
74233;SDS011;62591;55.764;37.718;2023-11-19T13:32:10;16.13;;;7.88;;
74233;SDS011;62591;55.764;37.718;2023-11-19T13:34:39;18.83;;;8.10;;
74233;SDS011;62591;55.764;37.718;2023-11-19T13:37:09;21.02;;;7.68;;
74233;SDS011;62591;55.764;37.718;2023-11-19T13:39:41;17.88;;;7.93;;
74233;SDS011;62591;55.764;37.718;2023-11-19T13:42:10;17.20;;;8.13;;
74233;SDS011;62591;55.764;37.718;2023-11-19T13:44:40;14.65;;;7.63;;
74233;SDS011;62591;55.764;37.718;2023-11-19T13:47:09;17.27;;;7.40;;
74233;SDS011;62591;55.764;37.718;2023-11-19T13:49:40;16.60;;;8.00;;
74233;SDS011;62591;55.764;37.718;2023-11-19T13:52:12;79.40;;;30.92;;
74233;SDS011;62591;55.764;37.718;2023-11-19T13:54:41;21.10;;;9.63;;
74233;SDS011;62591;55.764;37.718;2023-11-19T13:57:09;21.52;;;9.15;;
74233;SDS011;62591;55.764;37.718;2023-11-19T13:59:39;16.90;;;8.30;;
74233;SDS011;62591;55.764;37.718;2023-11-19T14:02:08;17.17;;;8.40;;
74233;SDS011;62591;55.764;37.718;2023-11-19T14:04:37;17.23;;;8.10;;
74233;SDS011;62591;55.764;37.718;2023-11-19T14:07:06;29.33;;;9.75;;
74233;SDS011;62591;55.764;37.718;2023-11-19T14:09:36;20.88;;;9.23;;
74233;SDS011;62591;55.764;37.718;2023-11-19T14:12:04;15.75;;;7.65;;
74233;SDS011;62591;55.764;37.718;2023-11-19T14:14:33;27.60;;;9.57;;
74233;SDS011;62591;55.764;37.718;2023-11-19T14:17:02;25.45;;;9.02;;
74233;SDS011;62591;55.764;37.718;2023-11-19T14:19:34;16.25;;;7.60;;
74233;SDS011;62591;55.764;37.718;2023-11-19T14:22:02;18.65;;;8.27;;
74233;SDS011;62591;55.764;37.718;2023-11-19T14:24:31;17.88;;;8.88;;
74233;SDS011;62591;55.764;37.718;2023-11-19T14:27:02;18.25;;;7.60;;
74233;SDS011;62591;55.764;37.718;2023-11-19T14:29:31;19.10;;;8.10;;
74233;SDS011;62591;55.764;37.718;2023-11-19T14:32:00;27.83;;;8.95;;
74233;SDS011;62591;55.764;37.718;2023-11-19T14:34:29;16.15;;;8.32;;
74233;SDS011;62591;55.764;37.718;2023-11-19T14:36:59;16.70;;;8.35;;
74233;SDS011;62591;55.764;37.718;2023-11-19T14:39:28;20.40;;;8.60;;
74233;SDS011;62591;55.764;37.718;2023-11-19T14:41:58;19.48;;;8.57;;
74233;SDS011;62591;55.764;37.718;2023-11-19T14:44:32;15.25;;;7.95;;
74233;SDS011;62591;55.764;37.718;2023-11-19T14:47:01;17.95;;;8.27;;
74233;SDS011;62591;55.764;37.718;2023-11-19T14:49:30;16.40;;;7.35;;